sensor_id;sensor_type;location;lat;lon;timestamp;P1;durP1;ratioP1;P2;durP2;ratioP2
26822;SDS011;14852;51.910;8.878;2023-05-17T00:02:17;6.55;;;2.65;;
26822;SDS011;14852;51.910;8.878;2023-05-17T00:04:43;5.90;;;2.55;;
26822;SDS011;14852;51.910;8.878;2023-05-17T00:07:10;5.93;;;2.40;;
26822;SDS011;14852;51.910;8.878;2023-05-17T00:09:35;2.65;;;2.20;;
26822;SDS011;14852;51.910;8.878;2023-05-17T00:12:01;3.28;;;1.92;;
26822;SDS011;14852;51.910;8.878;2023-05-17T00:14:27;4.97;;;2.38;;
26822;SDS011;14852;51.910;8.878;2023-05-17T00:16:53;5.25;;;2.50;;
26822;SDS011;14852;51.910;8.878;2023-05-17T00:19:19;5.50;;;2.10;;
26822;SDS011;14852;51.910;8.878;2023-05-17T00:21:45;5.70;;;2.33;;
26822;SDS011;14852;51.910;8.878;2023-05-17T00:24:10;4.65;;;2.85;;
26822;SDS011;14852;51.910;8.878;2023-05-17T00:26:36;6.25;;;2.97;;
26822;SDS011;14852;51.910;8.878;2023-05-17T00:29:02;5.68;;;2.63;;
26822;SDS011;14852;51.910;8.878;2023-05-17T00:31:28;5.80;;;2.67;;
26822;SDS011;14852;51.910;8.878;2023-05-17T00:33:53;4.85;;;2.50;;
26822;SDS011;14852;51.910;8.878;2023-05-17T00:36:19;6.35;;;2.60;;
26822;SDS011;14852;51.910;8.878;2023-05-17T00:38:45;4.07;;;2.03;;
26822;SDS011;14852;51.910;8.878;2023-05-17T00:41:11;8.98;;;3.33;;
26822;SDS011;14852;51.910;8.878;2023-05-17T00:43:37;3.88;;;2.67;;
26822;SDS011;14852;51.910;8.878;2023-05-17T00:46:03;5.32;;;2.45;;
26822;SDS011;14852;51.910;8.878;2023-05-17T00:48:29;5.20;;;2.72;;
26822;SDS011;14852;51.910;8.878;2023-05-17T00:50:55;3.83;;;2.30;;
26822;SDS011;14852;51.910;8.878;2023-05-17T00:53:22;8.40;;;3.45;;
26822;SDS011;14852;51.910;8.878;2023-05-17T00:55:48;6.15;;;3.45;;
26822;SDS011;14852;51.910;8.878;2023-05-17T00:58:14;5.47;;;2.95;;
26822;SDS011;14852;51.910;8.878;2023-05-17T01:00:40;7.72;;;3.38;;
26822;SDS011;14852;51.910;8.878;2023-05-17T01:03:07;8.27;;;3.30;;
26822;SDS011;14852;51.910;8.878;2023-05-17T01:05:33;5.93;;;3.10;;
26822;SDS011;14852;51.910;8.878;2023-05-17T01:08:00;6.57;;;3.47;;
26822;SDS011;14852;51.910;8.878;2023-05-17T01:13:17;6.22;;;3.22;;
26822;SDS011;14852;51.910;8.878;2023-05-17T01:15:56;4.40;;;2.53;;
26822;SDS011;14852;51.910;8.878;2023-05-17T01:18:37;6.35;;;2.70;;
26822;SDS011;14852;51.910;8.878;2023-05-17T01:27:03;7.20;;;2.97;;
26822;SDS011;14852;51.910;8.878;2023-05-17T01:29:30;6.13;;;2.95;;
26822;SDS011;14852;51.910;8.878;2023-05-17T01:31:59;5.22;;;2.88;;
26822;SDS011;14852;51.910;8.878;2023-05-17T01:34:27;8.55;;;3.17;;
26822;SDS011;14852;51.910;8.878;2023-05-17T01:36:54;10.48;;;3.63;;
26822;SDS011;14852;51.910;8.878;2023-05-17T01:39:21;9.52;;;2.83;;
26822;SDS011;14852;51.910;8.878;2023-05-17T01:41:54;7.45;;;3.03;;
26822;SDS011;14852;51.910;8.878;2023-05-17T01:44:34;6.70;;;2.95;;
26822;SDS011;14852;51.910;8.878;2023-05-17T01:47:11;7.57;;;2.63;;
26822;SDS011;14852;51.910;8.878;2023-05-17T01:49:51;6.63;;;3.65;;
26822;SDS011;14852;51.910;8.878;2023-05-17T01:58:24;5.65;;;3.00;;
26822;SDS011;14852;51.910;8.878;2023-05-17T02:00:53;5.80;;;2.97;;
26822;SDS011;14852;51.910;8.878;2023-05-17T02:03:22;5.97;;;2.53;;
26822;SDS011;14852;51.910;8.878;2023-05-17T02:05:51;5.03;;;3.42;;
26822;SDS011;14852;51.910;8.878;2023-05-17T02:08:17;6.55;;;3.17;;
26822;SDS011;14852;51.910;8.878;2023-05-17T02:10:42;6.93;;;3.00;;
26822;SDS011;14852;51.910;8.878;2023-05-17T02:13:08;5.10;;;3.03;;
26822;SDS011;14852;51.910;8.878;2023-05-17T02:15:34;5.35;;;2.83;;
26822;SDS011;14852;51.910;8.878;2023-05-17T02:17:59;10.43;;;4.60;;
26822;SDS011;14852;51.910;8.878;2023-05-17T02:20:25;6.50;;;3.35;;
26822;SDS011;14852;51.910;8.878;2023-05-17T02:22:51;9.88;;;3.80;;
26822;SDS011;14852;51.910;8.878;2023-05-17T02:25:17;6.57;;;2.80;;
26822;SDS011;14852;51.910;8.878;2023-05-17T02:27:43;5.32;;;2.65;;
26822;SDS011;14852;51.910;8.878;2023-05-17T02:30:08;8.43;;;3.72;;
26822;SDS011;14852;51.910;8.878;2023-05-17T02:32:35;10.68;;;3.63;;
26822;SDS011;14852;51.910;8.878;2023-05-17T02:35:00;5.22;;;2.85;;
26822;SDS011;14852;51.910;8.878;2023-05-17T02:37:26;7.70;;;3.38;;
26822;SDS011;14852;51.910;8.878;2023-05-17T02:39:52;8.65;;;3.75;;
26822;SDS011;14852;51.910;8.878;2023-05-17T02:42:17;6.60;;;3.30;;
26822;SDS011;14852;51.910;8.878;2023-05-17T02:44:43;7.07;;;3.47;;
26822;SDS011;14852;51.910;8.878;2023-05-17T02:47:09;7.03;;;3.50;;
26822;SDS011;14852;51.910;8.878;2023-05-17T02:49:35;9.55;;;3.60;;
26822;SDS011;14852;51.910;8.878;2023-05-17T02:52:01;9.52;;;4.18;;
26822;SDS011;14852;51.910;8.878;2023-05-17T02:54:28;6.60;;;2.78;;
26822;SDS011;14852;51.910;8.878;2023-05-17T02:56:54;8.75;;;4.35;;
26822;SDS011;14852;51.910;8.878;2023-05-17T02:59:20;8.30;;;4.25;;
26822;SDS011;14852;51.910;8.878;2023-05-17T03:01:46;6.45;;;3.72;;
26822;SDS011;14852;51.910;8.878;2023-05-17T03:04:14;10.57;;;3.60;;
26822;SDS011;14852;51.910;8.878;2023-05-17T03:06:39;8.07;;;3.72;;
26822;SDS011;14852;51.910;8.878;2023-05-17T03:09:05;7.43;;;2.97;;
26822;SDS011;14852;51.910;8.878;2023-05-17T03:11:32;9.73;;;3.97;;
26822;SDS011;14852;51.910;8.878;2023-05-17T03:14:00;10.63;;;3.35;;
26822;SDS011;14852;51.910;8.878;2023-05-17T03:16:28;4.88;;;3.50;;
26822;SDS011;14852;51.910;8.878;2023-05-17T03:18:55;5.82;;;3.33;;
26822;SDS011;14852;51.910;8.878;2023-05-17T03:21:21;9.25;;;4.20;;
26822;SDS011;14852;51.910;8.878;2023-05-17T03:23:48;7.20;;;3.58;;
26822;SDS011;14852;51.910;8.878;2023-05-17T03:26:14;11.48;;;3.28;;
26822;SDS011;14852;51.910;8.878;2023-05-17T03:28:45;7.53;;;3.00;;
26822;SDS011;14852;51.910;8.878;2023-05-17T03:31:11;7.30;;;3.90;;
26822;SDS011;14852;51.910;8.878;2023-05-17T03:33:38;9.25;;;4.28;;
26822;SDS011;14852;51.910;8.878;2023-05-17T03:36:04;6.97;;;3.40;;
26822;SDS011;14852;51.910;8.878;2023-05-17T03:38:31;5.80;;;3.78;;
26822;SDS011;14852;51.910;8.878;2023-05-17T03:40:57;7.40;;;3.75;;
26822;SDS011;14852;51.910;8.878;2023-05-17T03:43:23;10.15;;;3.55;;
26822;SDS011;14852;51.910;8.878;2023-05-17T03:45:49;5.28;;;3.08;;
26822;SDS011;14852;51.910;8.878;2023-05-17T03:48:16;5.13;;;3.25;;
26822;SDS011;14852;51.910;8.878;2023-05-17T03:50:43;7.05;;;3.38;;
26822;SDS011;14852;51.910;8.878;2023-05-17T03:53:09;9.73;;;3.15;;
26822;SDS011;14852;51.910;8.878;2023-05-17T03:55:35;12.80;;;3.17;;
26822;SDS011;14852;51.910;8.878;2023-05-17T03:58:00;8.00;;;3.60;;
26822;SDS011;14852;51.910;8.878;2023-05-17T04:00:27;8.57;;;3.20;;
26822;SDS011;14852;51.910;8.878;2023-05-17T04:02:58;8.52;;;3.30;;
26822;SDS011;14852;51.910;8.878;2023-05-17T04:05:24;6.13;;;3.40;;
26822;SDS011;14852;51.910;8.878;2023-05-17T04:07:51;4.95;;;2.95;;
26822;SDS011;14852;51.910;8.878;2023-05-17T04:10:17;6.68;;;3.92;;
26822;SDS011;14852;51.910;8.878;2023-05-17T04:12:44;5.25;;;3.25;;
26822;SDS011;14852;51.910;8.878;2023-05-17T04:15:10;13.70;;;4.10;;
26822;SDS011;14852;51.910;8.878;2023-05-17T04:17:37;9.77;;;3.38;;
26822;SDS011;14852;51.910;8.878;2023-05-17T04:20:03;10.02;;;3.95;;
26822;SDS011;14852;51.910;8.878;2023-05-17T04:22:31;6.93;;;3.72;;
26822;SDS011;14852;51.910;8.878;2023-05-17T04:24:57;10.70;;;3.83;;
26822;SDS011;14852;51.910;8.878;2023-05-17T04:27:24;6.88;;;3.17;;
26822;SDS011;14852;51.910;8.878;2023-05-17T04:29:50;5.55;;;3.10;;
26822;SDS011;14852;51.910;8.878;2023-05-17T04:32:17;7.65;;;3.63;;
26822;SDS011;14852;51.910;8.878;2023-05-17T04:34:43;10.18;;;3.63;;
26822;SDS011;14852;51.910;8.878;2023-05-17T04:37:09;8.98;;;4.05;;
26822;SDS011;14852;51.910;8.878;2023-05-17T04:39:35;7.65;;;3.15;;
26822;SDS011;14852;51.910;8.878;2023-05-17T04:42:01;9.20;;;3.42;;
26822;SDS011;14852;51.910;8.878;2023-05-17T04:44:28;9.07;;;3.53;;
26822;SDS011;14852;51.910;8.878;2023-05-17T04:46:54;8.70;;;3.40;;
26822;SDS011;14852;51.910;8.878;2023-05-17T04:49:20;11.15;;;5.28;;
26822;SDS011;14852;51.910;8.878;2023-05-17T04:51:49;13.68;;;3.97;;
26822;SDS011;14852;51.910;8.878;2023-05-17T04:54:15;11.35;;;3.95;;
26822;SDS011;14852;51.910;8.878;2023-05-17T04:56:40;6.63;;;3.25;;
26822;SDS011;14852;51.910;8.878;2023-05-17T04:59:12;9.10;;;3.88;;
26822;SDS011;14852;51.910;8.878;2023-05-17T05:01:38;7.72;;;3.80;;
26822;SDS011;14852;51.910;8.878;2023-05-17T05:04:04;10.00;;;4.10;;
26822;SDS011;14852;51.910;8.878;2023-05-17T05:06:35;6.85;;;3.35;;
26822;SDS011;14852;51.910;8.878;2023-05-17T05:09:01;9.30;;;4.65;;
26822;SDS011;14852;51.910;8.878;2023-05-17T05:11:28;6.88;;;3.72;;
26822;SDS011;14852;51.910;8.878;2023-05-17T05:13:55;8.57;;;3.58;;
26822;SDS011;14852;51.910;8.878;2023-05-17T05:16:21;6.70;;;3.22;;
26822;SDS011;14852;51.910;8.878;2023-05-17T05:18:48;6.10;;;3.97;;
26822;SDS011;14852;51.910;8.878;2023-05-17T05:21:14;10.18;;;4.05;;
26822;SDS011;14852;51.910;8.878;2023-05-17T05:23:40;7.10;;;3.72;;
26822;SDS011;14852;51.910;8.878;2023-05-17T05:26:06;13.60;;;3.92;;
26822;SDS011;14852;51.910;8.878;2023-05-17T05:28:32;9.30;;;3.80;;
26822;SDS011;14852;51.910;8.878;2023-05-17T05:30:58;9.10;;;3.55;;
26822;SDS011;14852;51.910;8.878;2023-05-17T05:33:29;11.77;;;3.53;;
26822;SDS011;14852;51.910;8.878;2023-05-17T05:35:56;6.47;;;3.53;;
26822;SDS011;14852;51.910;8.878;2023-05-17T05:38:21;13.60;;;4.30;;
26822;SDS011;14852;51.910;8.878;2023-05-17T05:40:47;8.88;;;3.10;;
26822;SDS011;14852;51.910;8.878;2023-05-17T05:43:13;8.02;;;3.88;;
26822;SDS011;14852;51.910;8.878;2023-05-17T05:45:40;7.00;;;3.67;;
26822;SDS011;14852;51.910;8.878;2023-05-17T05:48:10;9.68;;;3.80;;
26822;SDS011;14852;51.910;8.878;2023-05-17T05:50:37;14.18;;;4.72;;
26822;SDS011;14852;51.910;8.878;2023-05-17T05:53:11;9.35;;;3.85;;
26822;SDS011;14852;51.910;8.878;2023-05-17T05:55:40;9.23;;;3.80;;
26822;SDS011;14852;51.910;8.878;2023-05-17T05:58:07;12.20;;;4.47;;
26822;SDS011;14852;51.910;8.878;2023-05-17T06:00:34;9.98;;;3.22;;
26822;SDS011;14852;51.910;8.878;2023-05-17T06:03:01;10.85;;;3.67;;
26822;SDS011;14852;51.910;8.878;2023-05-17T06:05:26;14.63;;;4.43;;
26822;SDS011;14852;51.910;8.878;2023-05-17T06:07:52;8.50;;;3.88;;
26822;SDS011;14852;51.910;8.878;2023-05-17T06:10:18;10.68;;;3.17;;
26822;SDS011;14852;51.910;8.878;2023-05-17T06:12:44;13.18;;;3.75;;
26822;SDS011;14852;51.910;8.878;2023-05-17T06:15:10;8.93;;;3.58;;
26822;SDS011;14852;51.910;8.878;2023-05-17T06:17:35;11.15;;;3.85;;
26822;SDS011;14852;51.910;8.878;2023-05-17T06:20:01;9.70;;;3.90;;
26822;SDS011;14852;51.910;8.878;2023-05-17T06:22:27;7.70;;;3.55;;
26822;SDS011;14852;51.910;8.878;2023-05-17T06:24:53;8.27;;;4.72;;
26822;SDS011;14852;51.910;8.878;2023-05-17T06:27:19;7.50;;;3.75;;
26822;SDS011;14852;51.910;8.878;2023-05-17T06:29:44;7.10;;;2.92;;
26822;SDS011;14852;51.910;8.878;2023-05-17T06:32:10;8.85;;;3.50;;
26822;SDS011;14852;51.910;8.878;2023-05-17T06:34:36;6.95;;;3.08;;
26822;SDS011;14852;51.910;8.878;2023-05-17T06:37:03;10.00;;;4.30;;
26822;SDS011;14852;51.910;8.878;2023-05-17T06:39:30;6.55;;;2.83;;
26822;SDS011;14852;51.910;8.878;2023-05-17T06:41:55;9.68;;;3.45;;
26822;SDS011;14852;51.910;8.878;2023-05-17T06:44:21;10.50;;;3.38;;
26822;SDS011;14852;51.910;8.878;2023-05-17T06:46:47;6.68;;;3.08;;
26822;SDS011;14852;51.910;8.878;2023-05-17T06:49:13;10.15;;;3.17;;
26822;SDS011;14852;51.910;8.878;2023-05-17T06:51:38;11.13;;;3.78;;
26822;SDS011;14852;51.910;8.878;2023-05-17T06:54:04;9.32;;;3.08;;
26822;SDS011;14852;51.910;8.878;2023-05-17T06:56:30;6.00;;;2.97;;
26822;SDS011;14852;51.910;8.878;2023-05-17T06:58:56;12.48;;;4.03;;
26822;SDS011;14852;51.910;8.878;2023-05-17T07:01:21;6.93;;;3.25;;
26822;SDS011;14852;51.910;8.878;2023-05-17T07:03:48;9.63;;;3.53;;
26822;SDS011;14852;51.910;8.878;2023-05-17T07:06:14;6.07;;;2.55;;
26822;SDS011;14852;51.910;8.878;2023-05-17T07:08:40;7.47;;;3.08;;
26822;SDS011;14852;51.910;8.878;2023-05-17T07:11:05;11.73;;;3.30;;
26822;SDS011;14852;51.910;8.878;2023-05-17T07:13:31;9.23;;;2.13;;
26822;SDS011;14852;51.910;8.878;2023-05-17T07:15:57;8.32;;;2.47;;
26822;SDS011;14852;51.910;8.878;2023-05-17T07:18:23;6.90;;;2.40;;
26822;SDS011;14852;51.910;8.878;2023-05-17T07:20:49;5.78;;;2.35;;
26822;SDS011;14852;51.910;8.878;2023-05-17T07:23:14;8.60;;;2.63;;
26822;SDS011;14852;51.910;8.878;2023-05-17T07:25:40;7.40;;;2.92;;
26822;SDS011;14852;51.910;8.878;2023-05-17T07:28:07;4.90;;;2.40;;
26822;SDS011;14852;51.910;8.878;2023-05-17T07:30:33;11.88;;;2.88;;
26822;SDS011;14852;51.910;8.878;2023-05-17T07:32:58;7.43;;;3.15;;
26822;SDS011;14852;51.910;8.878;2023-05-17T07:35:24;7.82;;;2.70;;
26822;SDS011;14852;51.910;8.878;2023-05-17T07:37:50;6.72;;;2.35;;
26822;SDS011;14852;51.910;8.878;2023-05-17T07:40:16;4.18;;;2.10;;
26822;SDS011;14852;51.910;8.878;2023-05-17T07:42:41;5.90;;;3.10;;
26822;SDS011;14852;51.910;8.878;2023-05-17T07:45:07;7.55;;;2.80;;
26822;SDS011;14852;51.910;8.878;2023-05-17T07:47:34;11.63;;;2.40;;
26822;SDS011;14852;51.910;8.878;2023-05-17T07:49:59;6.22;;;2.45;;
26822;SDS011;14852;51.910;8.878;2023-05-17T07:52:25;7.18;;;2.15;;
26822;SDS011;14852;51.910;8.878;2023-05-17T07:54:51;5.72;;;2.03;;
26822;SDS011;14852;51.910;8.878;2023-05-17T07:57:17;9.10;;;3.10;;
26822;SDS011;14852;51.910;8.878;2023-05-17T07:59:43;3.83;;;1.83;;
26822;SDS011;14852;51.910;8.878;2023-05-17T08:02:09;5.85;;;2.65;;
26822;SDS011;14852;51.910;8.878;2023-05-17T08:04:34;10.18;;;2.63;;
26822;SDS011;14852;51.910;8.878;2023-05-17T08:07:01;6.65;;;2.38;;
26822;SDS011;14852;51.910;8.878;2023-05-17T08:09:26;6.30;;;2.17;;
26822;SDS011;14852;51.910;8.878;2023-05-17T08:11:52;6.10;;;1.90;;
26822;SDS011;14852;51.910;8.878;2023-05-17T08:14:21;5.82;;;2.50;;
26822;SDS011;14852;51.910;8.878;2023-05-17T08:16:47;4.50;;;2.20;;
26822;SDS011;14852;51.910;8.878;2023-05-17T08:19:13;7.82;;;2.58;;
26822;SDS011;14852;51.910;8.878;2023-05-17T08:21:40;5.75;;;2.17;;
26822;SDS011;14852;51.910;8.878;2023-05-17T08:24:07;7.40;;;2.03;;
26822;SDS011;14852;51.910;8.878;2023-05-17T08:26:33;6.28;;;1.83;;
26822;SDS011;14852;51.910;8.878;2023-05-17T08:29:00;4.88;;;2.45;;
26822;SDS011;14852;51.910;8.878;2023-05-17T08:31:26;5.88;;;2.08;;
26822;SDS011;14852;51.910;8.878;2023-05-17T08:33:53;4.57;;;2.15;;
26822;SDS011;14852;51.910;8.878;2023-05-17T08:36:19;8.30;;;2.78;;
26822;SDS011;14852;51.910;8.878;2023-05-17T08:38:44;7.30;;;2.47;;
26822;SDS011;14852;51.910;8.878;2023-05-17T08:41:11;11.57;;;2.67;;
26822;SDS011;14852;51.910;8.878;2023-05-17T08:43:37;5.93;;;1.88;;
26822;SDS011;14852;51.910;8.878;2023-05-17T08:46:04;3.90;;;1.92;;
26822;SDS011;14852;51.910;8.878;2023-05-17T08:48:30;5.55;;;2.13;;
26822;SDS011;14852;51.910;8.878;2023-05-17T08:51:00;5.78;;;2.05;;
26822;SDS011;14852;51.910;8.878;2023-05-17T08:53:27;4.53;;;2.35;;
26822;SDS011;14852;51.910;8.878;2023-05-17T08:55:56;5.90;;;1.98;;
26822;SDS011;14852;51.910;8.878;2023-05-17T08:58:25;4.03;;;2.25;;
26822;SDS011;14852;51.910;8.878;2023-05-17T09:00:54;7.18;;;2.38;;
26822;SDS011;14852;51.910;8.878;2023-05-17T09:03:22;3.28;;;1.60;;
26822;SDS011;14852;51.910;8.878;2023-05-17T09:05:49;5.68;;;1.80;;
26822;SDS011;14852;51.910;8.878;2023-05-17T09:08:20;4.78;;;1.85;;
26822;SDS011;14852;51.910;8.878;2023-05-17T09:10:47;4.75;;;2.35;;
26822;SDS011;14852;51.910;8.878;2023-05-17T09:13:13;4.88;;;1.98;;
26822;SDS011;14852;51.910;8.878;2023-05-17T09:15:43;4.07;;;1.75;;
26822;SDS011;14852;51.910;8.878;2023-05-17T09:18:12;8.95;;;2.42;;
26822;SDS011;14852;51.910;8.878;2023-05-17T09:20:38;5.90;;;1.77;;
26822;SDS011;14852;51.910;8.878;2023-05-17T09:23:08;6.13;;;1.95;;
26822;SDS011;14852;51.910;8.878;2023-05-17T09:25:37;8.15;;;2.67;;
26822;SDS011;14852;51.910;8.878;2023-05-17T09:28:11;3.63;;;2.03;;
26822;SDS011;14852;51.910;8.878;2023-05-17T09:30:37;6.55;;;2.30;;
26822;SDS011;14852;51.910;8.878;2023-05-17T09:33:10;5.00;;;2.50;;
26822;SDS011;14852;51.910;8.878;2023-05-17T09:35:36;7.07;;;2.30;;
26822;SDS011;14852;51.910;8.878;2023-05-17T09:38:06;6.07;;;2.53;;
26822;SDS011;14852;51.910;8.878;2023-05-17T09:40:40;4.82;;;1.98;;
26822;SDS011;14852;51.910;8.878;2023-05-17T09:43:08;5.50;;;1.85;;
26822;SDS011;14852;51.910;8.878;2023-05-17T09:45:35;4.47;;;2.38;;
26822;SDS011;14852;51.910;8.878;2023-05-17T09:48:11;7.40;;;3.22;;
26822;SDS011;14852;51.910;8.878;2023-05-17T09:50:42;6.40;;;2.22;;
26822;SDS011;14852;51.910;8.878;2023-05-17T09:55:57;5.65;;;2.50;;
26822;SDS011;14852;51.910;8.878;2023-05-17T09:58:25;6.78;;;2.35;;
26822;SDS011;14852;51.910;8.878;2023-05-17T10:00:58;8.77;;;2.30;;
26822;SDS011;14852;51.910;8.878;2023-05-17T10:03:31;4.28;;;2.20;;
26822;SDS011;14852;51.910;8.878;2023-05-17T10:05:59;4.93;;;2.05;;
26822;SDS011;14852;51.910;8.878;2023-05-17T10:08:29;3.08;;;1.48;;
26822;SDS011;14852;51.910;8.878;2023-05-17T10:10:58;3.65;;;2.15;;
26822;SDS011;14852;51.910;8.878;2023-05-17T10:13:32;4.38;;;1.65;;
26822;SDS011;14852;51.910;8.878;2023-05-17T10:16:16;8.85;;;2.45;;
26822;SDS011;14852;51.910;8.878;2023-05-17T10:18:44;3.83;;;1.90;;
26822;SDS011;14852;51.910;8.878;2023-05-17T10:21:11;7.43;;;1.90;;
26822;SDS011;14852;51.910;8.878;2023-05-17T10:23:38;6.97;;;2.53;;
26822;SDS011;14852;51.910;8.878;2023-05-17T10:26:08;5.53;;;1.70;;
26822;SDS011;14852;51.910;8.878;2023-05-17T10:28:35;3.70;;;1.63;;
26822;SDS011;14852;51.910;8.878;2023-05-17T10:31:02;7.40;;;2.40;;
26822;SDS011;14852;51.910;8.878;2023-05-17T10:33:30;8.73;;;2.78;;
26822;SDS011;14852;51.910;8.878;2023-05-17T10:35:57;5.57;;;2.10;;
26822;SDS011;14852;51.910;8.878;2023-05-17T10:38:24;6.57;;;2.22;;
26822;SDS011;14852;51.910;8.878;2023-05-17T10:40:51;6.40;;;2.40;;
26822;SDS011;14852;51.910;8.878;2023-05-17T10:43:18;10.45;;;2.85;;
26822;SDS011;14852;51.910;8.878;2023-05-17T10:45:45;6.82;;;2.05;;
26822;SDS011;14852;51.910;8.878;2023-05-17T10:48:12;7.97;;;2.40;;
26822;SDS011;14852;51.910;8.878;2023-05-17T10:50:40;3.72;;;2.05;;
26822;SDS011;14852;51.910;8.878;2023-05-17T10:53:09;9.45;;;2.78;;
26822;SDS011;14852;51.910;8.878;2023-05-17T10:55:39;7.63;;;2.63;;
26822;SDS011;14852;51.910;8.878;2023-05-17T10:58:09;4.18;;;2.20;;
26822;SDS011;14852;51.910;8.878;2023-05-17T11:00:40;5.45;;;2.58;;
26822;SDS011;14852;51.910;8.878;2023-05-17T11:03:17;7.68;;;2.78;;
26822;SDS011;14852;51.910;8.878;2023-05-17T11:08:34;3.55;;;1.98;;
26822;SDS011;14852;51.910;8.878;2023-05-17T11:13:42;5.80;;;3.10;;
26822;SDS011;14852;51.910;8.878;2023-05-17T11:16:16;8.65;;;2.75;;
26822;SDS011;14852;51.910;8.878;2023-05-17T11:21:15;5.18;;;2.50;;
26822;SDS011;14852;51.910;8.878;2023-05-17T11:23:42;7.03;;;2.65;;
26822;SDS011;14852;51.910;8.878;2023-05-17T11:26:27;5.05;;;2.05;;
26822;SDS011;14852;51.910;8.878;2023-05-17T11:29:03;7.05;;;2.80;;
26822;SDS011;14852;51.910;8.878;2023-05-17T11:31:33;5.28;;;2.67;;
26822;SDS011;14852;51.910;8.878;2023-05-17T11:34:04;6.22;;;2.38;;
26822;SDS011;14852;51.910;8.878;2023-05-17T11:36:30;9.23;;;2.88;;
26822;SDS011;14852;51.910;8.878;2023-05-17T11:39:12;6.97;;;2.75;;
26822;SDS011;14852;51.910;8.878;2023-05-17T11:41:48;8.45;;;2.30;;
26822;SDS011;14852;51.910;8.878;2023-05-17T11:44:23;5.63;;;2.75;;
26822;SDS011;14852;51.910;8.878;2023-05-17T11:47:05;7.20;;;2.60;;
26822;SDS011;14852;51.910;8.878;2023-05-17T11:49:38;6.53;;;2.90;;
26822;SDS011;14852;51.910;8.878;2023-05-17T11:52:05;5.95;;;2.10;;
26822;SDS011;14852;51.910;8.878;2023-05-17T11:54:31;4.57;;;1.98;;
26822;SDS011;14852;51.910;8.878;2023-05-17T11:56:58;9.52;;;3.00;;
26822;SDS011;14852;51.910;8.878;2023-05-17T11:59:26;5.35;;;2.17;;
26822;SDS011;14852;51.910;8.878;2023-05-17T12:01:52;6.43;;;2.80;;
26822;SDS011;14852;51.910;8.878;2023-05-17T12:04:23;8.07;;;2.65;;
26822;SDS011;14852;51.910;8.878;2023-05-17T12:06:51;8.10;;;2.72;;
26822;SDS011;14852;51.910;8.878;2023-05-17T12:09:22;7.85;;;3.08;;
26822;SDS011;14852;51.910;8.878;2023-05-17T12:11:48;6.55;;;2.75;;
26822;SDS011;14852;51.910;8.878;2023-05-17T12:14:14;7.47;;;2.92;;
26822;SDS011;14852;51.910;8.878;2023-05-17T12:16:44;4.65;;;2.58;;
26822;SDS011;14852;51.910;8.878;2023-05-17T12:19:19;4.77;;;2.10;;
26822;SDS011;14852;51.910;8.878;2023-05-17T12:21:50;8.18;;;2.70;;
26822;SDS011;14852;51.910;8.878;2023-05-17T12:24:16;11.20;;;3.45;;
26822;SDS011;14852;51.910;8.878;2023-05-17T12:26:43;5.70;;;2.63;;
26822;SDS011;14852;51.910;8.878;2023-05-17T12:29:10;6.13;;;2.78;;
26822;SDS011;14852;51.910;8.878;2023-05-17T12:31:44;5.97;;;2.22;;
26822;SDS011;14852;51.910;8.878;2023-05-17T12:34:15;4.30;;;2.10;;
26822;SDS011;14852;51.910;8.878;2023-05-17T12:36:42;7.43;;;2.70;;
26822;SDS011;14852;51.910;8.878;2023-05-17T12:39:09;7.65;;;2.63;;
26822;SDS011;14852;51.910;8.878;2023-05-17T12:41:36;6.03;;;2.40;;
26822;SDS011;14852;51.910;8.878;2023-05-17T12:44:03;5.68;;;2.28;;
26822;SDS011;14852;51.910;8.878;2023-05-17T12:46:32;4.05;;;2.40;;
26822;SDS011;14852;51.910;8.878;2023-05-17T12:49:05;6.43;;;2.83;;
26822;SDS011;14852;51.910;8.878;2023-05-17T12:51:45;6.60;;;2.55;;
26822;SDS011;14852;51.910;8.878;2023-05-17T12:54:12;6.93;;;2.70;;
26822;SDS011;14852;51.910;8.878;2023-05-17T12:56:48;5.13;;;3.08;;
26822;SDS011;14852;51.910;8.878;2023-05-17T12:59:15;6.45;;;2.50;;
26822;SDS011;14852;51.910;8.878;2023-05-17T13:04:19;8.35;;;2.47;;
26822;SDS011;14852;51.910;8.878;2023-05-17T13:06:57;6.43;;;2.33;;
26822;SDS011;14852;51.910;8.878;2023-05-17T13:09:26;5.97;;;2.38;;
26822;SDS011;14852;51.910;8.878;2023-05-17T13:11:57;8.45;;;3.22;;
26822;SDS011;14852;51.910;8.878;2023-05-17T13:14:38;10.18;;;3.67;;
26822;SDS011;14852;51.910;8.878;2023-05-17T13:17:23;8.57;;;3.15;;
26822;SDS011;14852;51.910;8.878;2023-05-17T13:19:59;7.03;;;2.80;;
26822;SDS011;14852;51.910;8.878;2023-05-17T13:22:25;10.27;;;3.28;;
26822;SDS011;14852;51.910;8.878;2023-05-17T13:24:52;7.05;;;3.13;;
26822;SDS011;14852;51.910;8.878;2023-05-17T13:27:20;7.72;;;2.92;;
26822;SDS011;14852;51.910;8.878;2023-05-17T13:29:46;10.20;;;3.15;;
26822;SDS011;14852;51.910;8.878;2023-05-17T13:32:12;5.50;;;3.03;;
26822;SDS011;14852;51.910;8.878;2023-05-17T13:34:38;8.13;;;2.92;;
26822;SDS011;14852;51.910;8.878;2023-05-17T13:37:05;8.20;;;2.50;;
26822;SDS011;14852;51.910;8.878;2023-05-17T13:39:31;6.38;;;2.72;;
26822;SDS011;14852;51.910;8.878;2023-05-17T13:41:57;4.70;;;2.33;;
26822;SDS011;14852;51.910;8.878;2023-05-17T13:44:23;6.82;;;2.53;;
26822;SDS011;14852;51.910;8.878;2023-05-17T13:46:49;6.15;;;2.20;;
26822;SDS011;14852;51.910;8.878;2023-05-17T13:49:15;4.82;;;3.17;;
26822;SDS011;14852;51.910;8.878;2023-05-17T13:51:41;8.57;;;2.63;;
26822;SDS011;14852;51.910;8.878;2023-05-17T13:54:07;4.75;;;2.50;;
26822;SDS011;14852;51.910;8.878;2023-05-17T13:56:34;8.40;;;2.67;;
26822;SDS011;14852;51.910;8.878;2023-05-17T13:59:00;7.05;;;2.38;;
26822;SDS011;14852;51.910;8.878;2023-05-17T14:01:26;3.97;;;2.28;;
26822;SDS011;14852;51.910;8.878;2023-05-17T14:03:52;9.00;;;2.97;;
26822;SDS011;14852;51.910;8.878;2023-05-17T14:06:19;7.32;;;3.20;;
26822;SDS011;14852;51.910;8.878;2023-05-17T14:08:45;4.82;;;2.13;;
26822;SDS011;14852;51.910;8.878;2023-05-17T14:11:11;6.28;;;2.50;;
26822;SDS011;14852;51.910;8.878;2023-05-17T14:13:37;4.97;;;2.60;;
26822;SDS011;14852;51.910;8.878;2023-05-17T14:16:03;6.80;;;2.17;;
26822;SDS011;14852;51.910;8.878;2023-05-17T14:18:29;13.23;;;2.88;;
26822;SDS011;14852;51.910;8.878;2023-05-17T14:20:56;5.05;;;2.40;;
26822;SDS011;14852;51.910;8.878;2023-05-17T14:23:22;7.45;;;2.78;;
26822;SDS011;14852;51.910;8.878;2023-05-17T14:25:48;6.18;;;2.70;;
26822;SDS011;14852;51.910;8.878;2023-05-17T14:28:14;4.38;;;2.35;;
26822;SDS011;14852;51.910;8.878;2023-05-17T14:30:43;6.80;;;2.50;;
26822;SDS011;14852;51.910;8.878;2023-05-17T14:33:09;4.50;;;2.30;;
26822;SDS011;14852;51.910;8.878;2023-05-17T14:35:35;6.43;;;2.47;;
26822;SDS011;14852;51.910;8.878;2023-05-17T14:38:01;6.03;;;2.15;;
26822;SDS011;14852;51.910;8.878;2023-05-17T14:40:27;5.22;;;2.25;;
26822;SDS011;14852;51.910;8.878;2023-05-17T14:42:53;3.55;;;2.00;;
26822;SDS011;14852;51.910;8.878;2023-05-17T14:45:20;5.60;;;2.38;;
26822;SDS011;14852;51.910;8.878;2023-05-17T14:47:46;5.28;;;2.47;;
26822;SDS011;14852;51.910;8.878;2023-05-17T14:50:12;6.85;;;2.40;;
26822;SDS011;14852;51.910;8.878;2023-05-17T14:52:37;6.45;;;2.25;;
26822;SDS011;14852;51.910;8.878;2023-05-17T14:55:03;6.60;;;2.70;;
26822;SDS011;14852;51.910;8.878;2023-05-17T14:57:30;7.60;;;2.83;;
26822;SDS011;14852;51.910;8.878;2023-05-17T14:59:55;5.75;;;2.17;;
26822;SDS011;14852;51.910;8.878;2023-05-17T15:02:21;4.88;;;2.13;;
26822;SDS011;14852;51.910;8.878;2023-05-17T15:04:47;5.65;;;2.38;;
26822;SDS011;14852;51.910;8.878;2023-05-17T15:07:13;4.88;;;2.10;;
26822;SDS011;14852;51.910;8.878;2023-05-17T15:09:39;4.78;;;2.60;;
26822;SDS011;14852;51.910;8.878;2023-05-17T15:12:10;4.65;;;2.30;;
26822;SDS011;14852;51.910;8.878;2023-05-17T15:14:37;5.65;;;2.40;;
26822;SDS011;14852;51.910;8.878;2023-05-17T15:17:04;6.00;;;2.83;;